sensor_id;sensor_type;location;lat;lon;timestamp;pressure;altitude;pressure_sealevel;temperature;humidity
10261;BME280;5175;42.606;23.388;2024-01-15T00:00:17;93157.81;;;-2.33;95.24
10261;BME280;5175;42.606;23.388;2024-01-15T00:02:44;93146.66;;;-2.22;95.02
10261;BME280;5175;42.606;23.388;2024-01-15T00:05:11;93139.25;;;-2.25;95.75
10261;BME280;5175;42.606;23.388;2024-01-15T00:07:37;93140.22;;;-2.20;95.46
10261;BME280;5175;42.606;23.388;2024-01-15T00:10:05;93140.47;;;-2.28;96.09
10261;BME280;5175;42.606;23.388;2024-01-15T00:12:31;93140.28;;;-2.26;95.57
10261;BME280;5175;42.606;23.388;2024-01-15T00:14:58;93150.75;;;-2.51;97.83
10261;BME280;5175;42.606;23.388;2024-01-15T00:17:26;93141.06;;;-2.44;96.48
10261;BME280;5175;42.606;23.388;2024-01-15T00:19:53;93135.25;;;-2.46;96.53
10261;BME280;5175;42.606;23.388;2024-01-15T00:22:20;93134.50;;;-2.53;98.06
10261;BME280;5175;42.606;23.388;2024-01-15T00:24:47;93139.22;;;-2.43;97.24
10261;BME280;5175;42.606;23.388;2024-01-15T00:27:13;93142.38;;;-2.35;97.00
10261;BME280;5175;42.606;23.388;2024-01-15T00:29:40;93135.91;;;-2.32;96.76
10261;BME280;5175;42.606;23.388;2024-01-15T00:32:07;93118.69;;;-2.58;96.74
10261;BME280;5175;42.606;23.388;2024-01-15T00:34:35;93146.47;;;-2.45;98.10
10261;BME280;5175;42.606;23.388;2024-01-15T00:37:01;93117.97;;;-2.65;97.74
10261;BME280;5175;42.606;23.388;2024-01-15T00:39:29;93120.34;;;-2.64;98.67
10261;BME280;5175;42.606;23.388;2024-01-15T00:41:56;93137.72;;;-2.33;97.90
10261;BME280;5175;42.606;23.388;2024-01-15T00:44:23;93143.63;;;-2.19;96.69
10261;BME280;5175;42.606;23.388;2024-01-15T00:46:49;93136.63;;;-2.43;97.38
10261;BME280;5175;42.606;23.388;2024-01-15T00:49:16;93146.19;;;-2.56;99.77
10261;BME280;5175;42.606;23.388;2024-01-15T00:51:44;93139.66;;;-2.46;98.55
10261;BME280;5175;42.606;23.388;2024-01-15T00:54:11;93143.22;;;-2.41;98.55
10261;BME280;5175;42.606;23.388;2024-01-15T00:56:38;93125.66;;;-2.52;98.89
10261;BME280;5175;42.606;23.388;2024-01-15T00:59:04;93141.34;;;-2.77;100.00
10261;BME280;5175;42.606;23.388;2024-01-15T01:01:31;93122.72;;;-2.80;100.00
10261;BME280;5175;42.606;23.388;2024-01-15T01:03:58;93135.97;;;-2.57;100.00
10261;BME280;5175;42.606;23.388;2024-01-15T01:06:25;93130.09;;;-2.53;100.00
10261;BME280;5175;42.606;23.388;2024-01-15T01:08:53;93135.19;;;-2.39;99.31
10261;BME280;5175;42.606;23.388;2024-01-15T01:11:20;93136.31;;;-2.54;99.60
10261;BME280;5175;42.606;23.388;2024-01-15T01:13:46;93130.91;;;-2.52;99.89
10261;BME280;5175;42.606;23.388;2024-01-15T01:16:13;93134.56;;;-2.60;100.00
10261;BME280;5175;42.606;23.388;2024-01-15T01:18:40;93132.47;;;-2.51;99.96
10261;BME280;5175;42.606;23.388;2024-01-15T01:21:07;93129.28;;;-2.53;100.00
10261;BME280;5175;42.606;23.388;2024-01-15T01:23:33;93132.38;;;-2.63;100.00
10261;BME280;5175;42.606;23.388;2024-01-15T01:26:02;93121.53;;;-2.60;99.85
10261;BME280;5175;42.606;23.388;2024-01-15T01:28:28;93114.34;;;-2.46;98.80
10261;BME280;5175;42.606;23.388;2024-01-15T01:30:55;93116.66;;;-2.56;99.13
10261;BME280;5175;42.606;23.388;2024-01-15T01:33:22;93109.09;;;-2.64;99.64
10261;BME280;5175;42.606;23.388;2024-01-15T01:35:48;93113.09;;;-2.62;99.34
10261;BME280;5175;42.606;23.388;2024-01-15T01:38:15;93115.78;;;-2.68;100.00
10261;BME280;5175;42.606;23.388;2024-01-15T01:40:42;93120.69;;;-2.78;100.00
10261;BME280;5175;42.606;23.388;2024-01-15T01:43:10;93111.13;;;-2.66;100.00
10261;BME280;5175;42.606;23.388;2024-01-15T01:45:37;93104.81;;;-2.59;100.00
10261;BME280;5175;42.606;23.388;2024-01-15T01:48:05;93107.81;;;-2.55;100.00
10261;BME280;5175;42.606;23.388;2024-01-15T01:50:32;93126.41;;;-2.45;98.87
10261;BME280;5175;42.606;23.388;2024-01-15T01:53:00;93119.84;;;-2.54;99.49
10261;BME280;5175;42.606;23.388;2024-01-15T01:55:31;93107.88;;;-2.62;99.12
10261;BME280;5175;42.606;23.388;2024-01-15T01:57:59;93098.06;;;-2.66;99.07
10261;BME280;5175;42.606;23.388;2024-01-15T02:00:27;93099.47;;;-2.64;100.00
10261;BME280;5175;42.606;23.388;2024-01-15T02:02:54;93097.38;;;-2.55;99.27
10261;BME280;5175;42.606;23.388;2024-01-15T02:05:22;93098.56;;;-2.76;100.00
10261;BME280;5175;42.606;23.388;2024-01-15T02:07:49;93087.28;;;-2.70;100.00
10261;BME280;5175;42.606;23.388;2024-01-15T02:10:16;93102.78;;;-2.57;99.80
10261;BME280;5175;42.606;23.388;2024-01-15T02:12:43;93097.44;;;-2.43;98.96
10261;BME280;5175;42.606;23.388;2024-01-15T02:15:10;93082.94;;;-2.58;99.32
10261;BME280;5175;42.606;23.388;2024-01-15T02:17:59;93083.00;;;-2.64;100.00
10261;BME280;5175;42.606;23.388;2024-01-15T02:20:26;93078.59;;;-2.45;100.00
10261;BME280;5175;42.606;23.388;2024-01-15T02:22:52;93081.34;;;-2.40;98.38
10261;BME280;5175;42.606;23.388;2024-01-15T02:25:20;93072.28;;;-2.38;98.97
10261;BME280;5175;42.606;23.388;2024-01-15T02:27:47;93060.75;;;-2.48;99.66
10261;BME280;5175;42.606;23.388;2024-01-15T02:30:14;93073.31;;;-2.57;100.00
10261;BME280;5175;42.606;23.388;2024-01-15T02:32:42;93050.09;;;-2.47;100.00
10261;BME280;5175;42.606;23.388;2024-01-15T02:35:08;93042.72;;;-2.75;100.00
10261;BME280;5175;42.606;23.388;2024-01-15T02:37:36;93034.19;;;-2.82;100.00
10261;BME280;5175;42.606;23.388;2024-01-15T02:40:04;93029.19;;;-3.08;100.00
10261;BME280;5175;42.606;23.388;2024-01-15T02:42:34;93017.13;;;-2.84;100.00
10261;BME280;5175;42.606;23.388;2024-01-15T02:45:01;93021.28;;;-3.20;100.00
10261;BME280;5175;42.606;23.388;2024-01-15T02:47:29;93039.59;;;-3.01;100.00
10261;BME280;5175;42.606;23.388;2024-01-15T02:49:57;93024.13;;;-2.78;100.00
10261;BME280;5175;42.606;23.388;2024-01-15T02:52:26;93011.41;;;-2.93;100.00
10261;BME280;5175;42.606;23.388;2024-01-15T02:54:53;93021.53;;;-2.60;100.00
10261;BME280;5175;42.606;23.388;2024-01-15T02:57:20;93003.91;;;-2.65;100.00
10261;BME280;5175;42.606;23.388;2024-01-15T02:59:48;93006.06;;;-2.62;100.00
10261;BME280;5175;42.606;23.388;2024-01-15T03:02:15;93012.59;;;-2.34;100.00
10261;BME280;5175;42.606;23.388;2024-01-15T03:04:43;93007.28;;;-2.28;100.00
10261;BME280;5175;42.606;23.388;2024-01-15T03:07:11;93012.94;;;-2.31;100.00
10261;BME280;5175;42.606;23.388;2024-01-15T03:09:41;93006.31;;;-2.15;100.00
10261;BME280;5175;42.606;23.388;2024-01-15T03:12:10;92989.53;;;-2.08;100.00
10261;BME280;5175;42.606;23.388;2024-01-15T03:14:37;93006.72;;;-2.00;100.00
10261;BME280;5175;42.606;23.388;2024-01-15T03:17:05;93018.59;;;-2.16;100.00
10261;BME280;5175;42.606;23.388;2024-01-15T03:19:34;93011.63;;;-2.22;100.00
10261;BME280;5175;42.606;23.388;2024-01-15T03:22:01;93016.00;;;-2.34;100.00
10261;BME280;5175;42.606;23.388;2024-01-15T03:24:29;93019.09;;;-2.25;100.00
10261;BME280;5175;42.606;23.388;2024-01-15T03:26:55;92981.13;;;-2.39;100.00
10261;BME280;5175;42.606;23.388;2024-01-15T03:29:22;93018.81;;;-2.17;100.00
10261;BME280;5175;42.606;23.388;2024-01-15T03:31:49;93004.59;;;-2.21;100.00
10261;BME280;5175;42.606;23.388;2024-01-15T03:34:17;92986.75;;;-2.24;100.00
10261;BME280;5175;42.606;23.388;2024-01-15T03:36:44;92992.69;;;-2.35;100.00
10261;BME280;5175;42.606;23.388;2024-01-15T03:39:11;92981.16;;;-2.46;100.00
10261;BME280;5175;42.606;23.388;2024-01-15T03:41:37;92961.75;;;-2.50;100.00
10261;BME280;5175;42.606;23.388;2024-01-15T03:44:04;92985.16;;;-2.43;100.00
10261;BME280;5175;42.606;23.388;2024-01-15T03:46:31;92992.34;;;-2.39;100.00
10261;BME280;5175;42.606;23.388;2024-01-15T03:48:58;92996.78;;;-2.58;100.00
10261;BME280;5175;42.606;23.388;2024-01-15T03:51:26;92980.22;;;-2.52;100.00
10261;BME280;5175;42.606;23.388;2024-01-15T03:53:52;92990.53;;;-2.57;100.00
10261;BME280;5175;42.606;23.388;2024-01-15T03:56:19;92987.72;;;-2.73;100.00
10261;BME280;5175;42.606;23.388;2024-01-15T03:58:46;92982.94;;;-2.58;100.00
10261;BME280;5175;42.606;23.388;2024-01-15T04:01:12;92998.97;;;-2.55;100.00
10261;BME280;5175;42.606;23.388;2024-01-15T04:03:39;93005.09;;;-2.49;100.00
10261;BME280;5175;42.606;23.388;2024-01-15T04:06:06;92985.31;;;-2.57;100.00
10261;BME280;5175;42.606;23.388;2024-01-15T04:08:34;92986.50;;;-2.53;100.00
10261;BME280;5175;42.606;23.388;2024-01-15T04:11:01;92978.66;;;-2.89;100.00
10261;BME280;5175;42.606;23.388;2024-01-15T04:13:28;92976.75;;;-3.00;100.00
10261;BME280;5175;42.606;23.388;2024-01-15T04:15:54;92968.59;;;-2.85;100.00
10261;BME280;5175;42.606;23.388;2024-01-15T04:18:21;92953.84;;;-2.80;100.00
10261;BME280;5175;42.606;23.388;2024-01-15T04:20:48;92968.34;;;-2.66;100.00
10261;BME280;5175;42.606;23.388;2024-01-15T04:23:14;92974.44;;;-2.72;100.00
10261;BME280;5175;42.606;23.388;2024-01-15T04:25:43;92956.13;;;-2.65;100.00
10261;BME280;5175;42.606;23.388;2024-01-15T04:28:11;92975.47;;;-2.55;100.00
10261;BME280;5175;42.606;23.388;2024-01-15T04:30:38;92979.31;;;-2.57;100.00
10261;BME280;5175;42.606;23.388;2024-01-15T04:33:04;92977.34;;;-2.62;100.00
10261;BME280;5175;42.606;23.388;2024-01-15T04:35:31;92972.56;;;-2.65;100.00
10261;BME280;5175;42.606;23.388;2024-01-15T04:37:58;92979.75;;;-2.60;100.00
10261;BME280;5175;42.606;23.388;2024-01-15T04:40:24;92970.97;;;-2.47;100.00
10261;BME280;5175;42.606;23.388;2024-01-15T04:42:54;92986.91;;;-2.37;100.00
10261;BME280;5175;42.606;23.388;2024-01-15T04:45:21;92972.31;;;-2.27;100.00
10261;BME280;5175;42.606;23.388;2024-01-15T04:47:48;92975.59;;;-2.31;100.00
10261;BME280;5175;42.606;23.388;2024-01-15T04:50:15;92972.09;;;-2.25;100.00
10261;BME280;5175;42.606;23.388;2024-01-15T04:52:42;92974.00;;;-2.50;100.00
10261;BME280;5175;42.606;23.388;2024-01-15T04:55:08;92967.19;;;-2.52;100.00
10261;BME280;5175;42.606;23.388;2024-01-15T04:57:35;92976.75;;;-2.64;100.00
10261;BME280;5175;42.606;23.388;2024-01-15T05:00:04;92977.56;;;-2.63;100.00
10261;BME280;5175;42.606;23.388;2024-01-15T05:02:31;92969.31;;;-2.60;100.00
10261;BME280;5175;42.606;23.388;2024-01-15T05:04:58;92955.59;;;-2.56;100.00
10261;BME280;5175;42.606;23.388;2024-01-15T05:07:24;92976.38;;;-2.49;100.00
10261;BME280;5175;42.606;23.388;2024-01-15T05:09:51;92919.56;;;-2.35;100.00
10261;BME280;5175;42.606;23.388;2024-01-15T05:12:18;92961.94;;;-2.33;100.00
10261;BME280;5175;42.606;23.388;2024-01-15T05:14:45;92944.09;;;-2.07;100.00
10261;BME280;5175;42.606;23.388;2024-01-15T05:17:13;92931.75;;;-2.29;100.00
10261;BME280;5175;42.606;23.388;2024-01-15T05:19:40;92931.16;;;-2.02;100.00
10261;BME280;5175;42.606;23.388;2024-01-15T05:22:06;92926.75;;;-2.01;100.00
10261;BME280;5175;42.606;23.388;2024-01-15T05:24:33;92940.22;;;-2.16;100.00
10261;BME280;5175;42.606;23.388;2024-01-15T05:27:00;92916.97;;;-2.06;100.00
10261;BME280;5175;42.606;23.388;2024-01-15T05:29:26;92925.31;;;-1.85;100.00
10261;BME280;5175;42.606;23.388;2024-01-15T05:31:53;92930.50;;;-1.97;100.00
10261;BME280;5175;42.606;23.388;2024-01-15T05:34:21;92915.84;;;-1.98;100.00
10261;BME280;5175;42.606;23.388;2024-01-15T05:36:48;92922.44;;;-1.96;100.00
10261;BME280;5175;42.606;23.388;2024-01-15T05:39:15;92917.78;;;-1.94;100.00
10261;BME280;5175;42.606;23.388;2024-01-15T05:41:41;92912.44;;;-1.87;100.00
10261;BME280;5175;42.606;23.388;2024-01-15T05:44:08;92911.69;;;-1.87;100.00
10261;BME280;5175;42.606;23.388;2024-01-15T05:46:35;92918.34;;;-2.03;100.00
10261;BME280;5175;42.606;23.388;2024-01-15T05:49:02;92911.09;;;-1.90;100.00
10261;BME280;5175;42.606;23.388;2024-01-15T05:51:30;92915.66;;;-1.73;100.00
10261;BME280;5175;42.606;23.388;2024-01-15T05:53:56;92933.03;;;-1.91;100.00
10261;BME280;5175;42.606;23.388;2024-01-15T05:56:23;92905.66;;;-1.88;100.00
10261;BME280;5175;42.606;23.388;2024-01-15T05:58:50;92928.44;;;-2.07;100.00
10261;BME280;5175;42.606;23.388;2024-01-15T06:01:17;92910.25;;;-2.02;100.00
10261;BME280;5175;42.606;23.388;2024-01-15T06:03:44;92938.91;;;-1.95;100.00
10261;BME280;5175;42.606;23.388;2024-01-15T06:06:10;92934.53;;;-2.13;100.00
10261;BME280;5175;42.606;23.388;2024-01-15T06:08:39;92924.06;;;-2.24;100.00
10261;BME280;5175;42.606;23.388;2024-01-15T06:11:06;92931.91;;;-2.13;100.00
10261;BME280;5175;42.606;23.388;2024-01-15T06:13:33;92931.59;;;-2.05;100.00
10261;BME280;5175;42.606;23.388;2024-01-15T06:16:00;92919.97;;;-2.20;100.00
10261;BME280;5175;42.606;23.388;2024-01-15T06:18:26;92924.13;;;-2.31;100.00
10261;BME280;5175;42.606;23.388;2024-01-15T06:20:53;92919.66;;;-2.12;100.00
10261;BME280;5175;42.606;23.388;2024-01-15T06:23:20;92923.50;;;-2.26;100.00
10261;BME280;5175;42.606;23.388;2024-01-15T06:25:48;92938.06;;;-2.07;100.00
10261;BME280;5175;42.606;23.388;2024-01-15T06:28:15;92925.75;;;-2.18;100.00
10261;BME280;5175;42.606;23.388;2024-01-15T06:30:41;92920.69;;;-2.43;100.00
10261;BME280;5175;42.606;23.388;2024-01-15T06:33:08;92919.84;;;-2.25;100.00
10261;BME280;5175;42.606;23.388;2024-01-15T06:35:35;92923.75;;;-2.16;100.00
10261;BME280;5175;42.606;23.388;2024-01-15T06:38:01;92931.53;;;-1.98;100.00
10261;BME280;5175;42.606;23.388;2024-01-15T06:40:28;92914.22;;;-2.11;100.00
10261;BME280;5175;42.606;23.388;2024-01-15T06:42:56;92905.84;;;-2.01;100.00
10261;BME280;5175;42.606;23.388;2024-01-15T06:45:23;92912.13;;;-1.79;100.00
10261;BME280;5175;42.606;23.388;2024-01-15T06:47:50;92926.00;;;-1.67;100.00
10261;BME280;5175;42.606;23.388;2024-01-15T06:50:16;92923.06;;;-1.70;100.00
10261;BME280;5175;42.606;23.388;2024-01-15T06:52:43;92918.44;;;-1.57;100.00
10261;BME280;5175;42.606;23.388;2024-01-15T06:55:10;92935.00;;;-1.51;100.00
10261;BME280;5175;42.606;23.388;2024-01-15T06:57:36;92921.38;;;-1.65;100.00
10261;BME280;5175;42.606;23.388;2024-01-15T07:00:06;92916.72;;;-1.63;100.00
10261;BME280;5175;42.606;23.388;2024-01-15T07:02:33;92938.09;;;-1.43;100.00
10261;BME280;5175;42.606;23.388;2024-01-15T07:05:00;92949.25;;;-1.24;100.00
10261;BME280;5175;42.606;23.388;2024-01-15T07:07:27;92940.63;;;-1.24;100.00
10261;BME280;5175;42.606;23.388;2024-01-15T07:09:55;92929.25;;;-1.18;100.00
10261;BME280;5175;42.606;23.388;2024-01-15T07:12:21;92926.50;;;-1.12;100.00
10261;BME280;5175;42.606;23.388;2024-01-15T07:14:48;92936.16;;;-0.89;100.00
10261;BME280;5175;42.606;23.388;2024-01-15T07:17:16;92949.91;;;-0.82;99.87
10261;BME280;5175;42.606;23.388;2024-01-15T07:19:43;92958.81;;;-0.83;99.37
10261;BME280;5175;42.606;23.388;2024-01-15T07:22:10;92941.91;;;-0.64;98.62
10261;BME280;5175;42.606;23.388;2024-01-15T07:24:36;92931.94;;;-0.67;98.53
10261;BME280;5175;42.606;23.388;2024-01-15T07:27:03;92961.84;;;-0.63;96.44
10261;BME280;5175;42.606;23.388;2024-01-15T07:29:31;92948.34;;;-0.83;97.98
10261;BME280;5175;42.606;23.388;2024-01-15T07:31:58;92950.84;;;-1.11;100.00
10261;BME280;5175;42.606;23.388;2024-01-15T07:34:27;92928.00;;;-1.16;100.00
10261;BME280;5175;42.606;23.388;2024-01-15T07:36:53;92931.97;;;-0.90;100.00
10261;BME280;5175;42.606;23.388;2024-01-15T07:39:20;92936.63;;;-1.15;100.00
10261;BME280;5175;42.606;23.388;2024-01-15T07:41:48;92938.22;;;-1.26;100.00
10261;BME280;5175;42.606;23.388;2024-01-15T07:44:14;92963.47;;;-0.85;98.77
10261;BME280;5175;42.606;23.388;2024-01-15T07:46:44;92925.22;;;-0.75;99.45
10261;BME280;5175;42.606;23.388;2024-01-15T07:49:10;92966.06;;;-0.74;98.95
10261;BME280;5175;42.606;23.388;2024-01-15T07:51:39;92925.53;;;-0.71;99.29
10261;BME280;5175;42.606;23.388;2024-01-15T07:54:06;92935.88;;;-0.53;99.27
10261;BME280;5175;42.606;23.388;2024-01-15T07:56:34;92956.16;;;-0.60;100.00
10261;BME280;5175;42.606;23.388;2024-01-15T07:59:19;92937.53;;;-0.35;96.60
10261;BME280;5175;42.606;23.388;2024-01-15T08:01:45;92949.44;;;-0.16;95.70
10261;BME280;5175;42.606;23.388;2024-01-15T08:04:12;92940.56;;;-0.27;95.68
10261;BME280;5175;42.606;23.388;2024-01-15T08:06:40;92934.59;;;-0.11;97.51
10261;BME280;5175;42.606;23.388;2024-01-15T08:09:07;92932.47;;;0.03;96.30
10261;BME280;5175;42.606;23.388;2024-01-15T08:11:34;92923.50;;;0.16;96.79
10261;BME280;5175;42.606;23.388;2024-01-15T08:14:02;92921.16;;;-0.14;97.69
10261;BME280;5175;42.606;23.388;2024-01-15T08:16:29;92934.34;;;-0.37;99.62
10261;BME280;5175;42.606;23.388;2024-01-15T08:18:56;92937.53;;;-0.07;96.92
10261;BME280;5175;42.606;23.388;2024-01-15T08:21:23;92937.03;;;0.08;97.43
10261;BME280;5175;42.606;23.388;2024-01-15T08:23:51;92925.53;;;0.42;94.09
10261;BME280;5175;42.606;23.388;2024-01-15T08:26:17;92898.34;;;0.31;96.25
10261;BME280;5175;42.606;23.388;2024-01-15T08:28:44;92913.06;;;0.49;94.47
10261;BME280;5175;42.606;23.388;2024-01-15T08:31:12;92935.16;;;0.70;92.78
10261;BME280;5175;42.606;23.388;2024-01-15T08:33:39;92910.00;;;0.90;91.33
10261;BME280;5175;42.606;23.388;2024-01-15T08:36:06;92930.53;;;0.93;91.21
10261;BME280;5175;42.606;23.388;2024-01-15T08:38:32;92915.84;;;0.92;91.15
10261;BME280;5175;42.606;23.388;2024-01-15T08:41:00;92916.38;;;0.94;90.65
10261;BME280;5175;42.606;23.388;2024-01-15T08:43:27;92889.41;;;0.99;90.47
10261;BME280;5175;42.606;23.388;2024-01-15T08:45:55;92912.09;;;1.05;90.36
10261;BME280;5175;42.606;23.388;2024-01-15T08:48:22;92905.63;;;0.96;89.64
10261;BME280;5175;42.606;23.388;2024-01-15T08:50:48;92901.00;;;1.03;88.94
10261;BME280;5175;42.606;23.388;2024-01-15T08:53:15;92896.56;;;1.03;88.02
10261;BME280;5175;42.606;23.388;2024-01-15T08:55:43;92901.81;;;1.03;87.49
10261;BME280;5175;42.606;23.388;2024-01-15T08:58:11;92887.19;;;0.91;87.14
10261;BME280;5175;42.606;23.388;2024-01-15T09:00:38;92899.25;;;1.08;89.09
10261;BME280;5175;42.606;23.388;2024-01-15T09:03:05;92899.63;;;1.17;89.36
10261;BME280;5175;42.606;23.388;2024-01-15T09:05:32;92887.28;;;1.39;89.82
10261;BME280;5175;42.606;23.388;2024-01-15T09:07:58;92886.75;;;1.59;88.95
10261;BME280;5175;42.606;23.388;2024-01-15T09:10:25;92890.13;;;2.03;86.24
10261;BME280;5175;42.606;23.388;2024-01-15T09:12:52;92891.66;;;1.99;86.29
10261;BME280;5175;42.606;23.388;2024-01-15T09:15:20;92857.09;;;2.17;85.44
10261;BME280;5175;42.606;23.388;2024-01-15T09:17:46;92845.28;;;2.19;83.47
10261;BME280;5175;42.606;23.388;2024-01-15T09:20:13;92833.97;;;2.19;83.46
10261;BME280;5175;42.606;23.388;2024-01-15T09:22:40;92830.03;;;2.21;84.60
10261;BME280;5175;42.606;23.388;2024-01-15T09:25:07;92812.44;;;2.22;85.37
10261;BME280;5175;42.606;23.388;2024-01-15T09:27:35;92813.06;;;2.39;85.35
10261;BME280;5175;42.606;23.388;2024-01-15T09:30:01;92809.09;;;2.36;86.69
10261;BME280;5175;42.606;23.388;2024-01-15T09:32:29;92828.72;;;2.19;86.91
10261;BME280;5175;42.606;23.388;2024-01-15T09:34:58;92820.50;;;2.10;86.27
10261;BME280;5175;42.606;23.388;2024-01-15T09:37:24;92821.13;;;1.96;86.48
10261;BME280;5175;42.606;23.388;2024-01-15T09:39:51;92827.84;;;1.81;86.45
10261;BME280;5175;42.606;23.388;2024-01-15T09:42:19;92810.63;;;1.69;88.28
10261;BME280;5175;42.606;23.388;2024-01-15T09:44:47;92817.91;;;1.62;88.47
10261;BME280;5175;42.606;23.388;2024-01-15T09:47:15;92786.50;;;1.23;90.45
10261;BME280;5175;42.606;23.388;2024-01-15T09:49:43;92797.84;;;1.51;89.79
10261;BME280;5175;42.606;23.388;2024-01-15T09:52:11;92782.22;;;1.66;88.80
10261;BME280;5175;42.606;23.388;2024-01-15T09:54:38;92769.50;;;1.58;88.87
10261;BME280;5175;42.606;23.388;2024-01-15T09:57:05;92764.56;;;1.61;89.45
10261;BME280;5175;42.606;23.388;2024-01-15T09:59:34;92776.25;;;1.22;90.44
10261;BME280;5175;42.606;23.388;2024-01-15T10:02:02;92765.94;;;1.15;91.76
10261;BME280;5175;42.606;23.388;2024-01-15T10:04:29;92780.31;;;1.35;90.64
10261;BME280;5175;42.606;23.388;2024-01-15T10:06:57;92760.91;;;1.36;90.94
10261;BME280;5175;42.606;23.388;2024-01-15T10:09:27;92745.41;;;1.12;95.70
10261;BME280;5175;42.606;23.388;2024-01-15T10:11:54;92749.91;;;0.95;94.19
10261;BME280;5175;42.606;23.388;2024-01-15T10:14:21;92761.66;;;1.09;92.34
10261;BME280;5175;42.606;23.388;2024-01-15T10:16:47;92751.56;;;1.01;92.95
10261;BME280;5175;42.606;23.388;2024-01-15T10:19:14;92738.06;;;1.14;93.03
10261;BME280;5175;42.606;23.388;2024-01-15T10:21:41;92742.50;;;1.36;91.86
10261;BME280;5175;42.606;23.388;2024-01-15T10:24:09;92733.50;;;1.32;91.75
10261;BME280;5175;42.606;23.388;2024-01-15T10:26:35;92732.94;;;1.24;91.52
10261;BME280;5175;42.606;23.388;2024-01-15T10:29:02;92717.13;;;1.19;92.06
10261;BME280;5175;42.606;23.388;2024-01-15T10:31:29;92714.97;;;1.16;91.40
10261;BME280;5175;42.606;23.388;2024-01-15T10:34:09;92704.06;;;1.30;90.47
10261;BME280;5175;42.606;23.388;2024-01-15T10:36:39;92706.41;;;0.99;91.29
10261;BME280;5175;42.606;23.388;2024-01-15T10:39:06;92687.50;;;1.29;91.63
10261;BME280;5175;42.606;23.388;2024-01-15T10:41:35;92716.81;;;1.43;88.97
10261;BME280;5175;42.606;23.388;2024-01-15T10:44:01;92698.63;;;1.36;90.88
10261;BME280;5175;42.606;23.388;2024-01-15T10:46:29;92706.31;;;1.43;88.61
10261;BME280;5175;42.606;23.388;2024-01-15T10:48:56;92724.22;;;1.46;89.23
10261;BME280;5175;42.606;23.388;2024-01-15T10:51:23;92690.84;;;1.46;89.85
10261;BME280;5175;42.606;23.388;2024-01-15T10:53:51;92697.78;;;1.62;89.28
10261;BME280;5175;42.606;23.388;2024-01-15T10:56:21;92699.19;;;1.70;88.93
10261;BME280;5175;42.606;23.388;2024-01-15T10:58:50;92694.53;;;1.77;89.55
10261;BME280;5175;42.606;23.388;2024-01-15T11:01:17;92683.78;;;1.83;88.27
10261;BME280;5175;42.606;23.388;2024-01-15T11:03:45;92691.50;;;1.95;87.56
10261;BME280;5175;42.606;23.388;2024-01-15T11:06:18;92681.50;;;1.97;87.78
10261;BME280;5175;42.606;23.388;2024-01-15T11:08:48;92683.03;;;1.93;87.38
10261;BME280;5175;42.606;23.388;2024-01-15T11:11:16;92671.03;;;2.02;84.41
10261;BME280;5175;42.606;23.388;2024-01-15T11:13:42;92669.22;;;2.08;84.35
10261;BME280;5175;42.606;23.388;2024-01-15T11:16:12;92669.81;;;2.20;82.31
10261;BME280;5175;42.606;23.388;2024-01-15T11:18:40;92670.03;;;2.65;79.52
10261;BME280;5175;42.606;23.388;2024-01-15T11:21:28;92660.66;;;2.84;79.21
10261;BME280;5175;42.606;23.388;2024-01-15T11:23:57;92670.72;;;3.07;77.43
10261;BME280;5175;42.606;23.388;2024-01-15T11:26:31;92667.03;;;3.18;77.12
10261;BME280;5175;42.606;23.388;2024-01-15T11:29:00;92663.03;;;2.91;77.58
10261;BME280;5175;42.606;23.388;2024-01-15T11:31:59;92659.13;;;3.18;77.67
10261;BME280;5175;42.606;23.388;2024-01-15T11:34:49;92671.59;;;3.48;76.81
10261;BME280;5175;42.606;23.388;2024-01-15T11:37:16;92662.09;;;3.57;75.76
10261;BME280;5175;42.606;23.388;2024-01-15T11:39:43;92648.38;;;3.40;77.26
10261;BME280;5175;42.606;23.388;2024-01-15T11:42:12;92634.41;;;3.40;77.30
10261;BME280;5175;42.606;23.388;2024-01-15T11:44:40;92641.28;;;3.51;76.36
10261;BME280;5175;42.606;23.388;2024-01-15T11:47:09;92651.31;;;3.64;76.89
10261;BME280;5175;42.606;23.388;2024-01-15T11:50:05;92646.78;;;3.49;76.12
10261;BME280;5175;42.606;23.388;2024-01-15T11:52:34;92647.56;;;3.30;77.97
10261;BME280;5175;42.606;23.388;2024-01-15T11:55:10;92653.94;;;3.49;77.28
10261;BME280;5175;42.606;23.388;2024-01-15T11:57:42;92637.56;;;3.52;79.40
10261;BME280;5175;42.606;23.388;2024-01-15T12:00:13;92645.50;;;3.77;76.68
10261;BME280;5175;42.606;23.388;2024-01-15T12:02:42;92617.78;;;3.95;74.58
10261;BME280;5175;42.606;23.388;2024-01-15T12:05:09;92633.56;;;4.25;73.99
10261;BME280;5175;42.606;23.388;2024-01-15T12:07:38;92640.09;;;4.48;71.81
10261;BME280;5175;42.606;23.388;2024-01-15T12:10:08;92640.59;;;4.50;72.21
10261;BME280;5175;42.606;23.388;2024-01-15T12:12:44;92631.06;;;4.64;72.62
10261;BME280;5175;42.606;23.388;2024-01-15T12:15:14;92614.94;;;4.65;71.69
10261;BME280;5175;42.606;23.388;2024-01-15T12:17:42;92605.94;;;4.71;72.08
10261;BME280;5175;42.606;23.388;2024-01-15T12:20:10;92604.63;;;4.69;72.07
10261;BME280;5175;42.606;23.388;2024-01-15T12:22:38;92602.28;;;4.67;73.03
10261;BME280;5175;42.606;23.388;2024-01-15T12:25:05;92610.88;;;4.83;70.79
10261;BME280;5175;42.606;23.388;2024-01-15T12:27:32;92606.81;;;4.57;72.46
10261;BME280;5175;42.606;23.388;2024-01-15T12:29:58;92609.41;;;4.62;72.64
10261;BME280;5175;42.606;23.388;2024-01-15T12:32:25;92609.38;;;4.72;73.90
10261;BME280;5175;42.606;23.388;2024-01-15T12:34:53;92618.31;;;4.81;72.10
10261;BME280;5175;42.606;23.388;2024-01-15T12:37:20;92624.16;;;4.73;73.16
10261;BME280;5175;42.606;23.388;2024-01-15T12:39:47;92623.94;;;4.64;72.90
10261;BME280;5175;42.606;23.388;2024-01-15T12:42:14;92613.91;;;4.61;72.86
10261;BME280;5175;42.606;23.388;2024-01-15T12:44:42;92609.97;;;4.59;72.73
10261;BME280;5175;42.606;23.388;2024-01-15T12:47:09;92590.88;;;4.72;73.17
10261;BME280;5175;42.606;23.388;2024-01-15T12:49:36;92594.34;;;4.67;72.86
10261;BME280;5175;42.606;23.388;2024-01-15T12:52:07;92583.81;;;4.52;74.83
10261;BME280;5175;42.606;23.388;2024-01-15T12:54:34;92600.69;;;4.66;73.13
10261;BME280;5175;42.606;23.388;2024-01-15T12:57:01;92592.53;;;4.53;75.70
10261;BME280;5175;42.606;23.388;2024-01-15T12:59:28;92587.03;;;4.49;75.85
10261;BME280;5175;42.606;23.388;2024-01-15T13:01:54;92582.78;;;4.53;76.75